الصفحة الرئيسية
METAR-TAF:

METAR-TAF

مطار :

مطار لارنكا الدولي

لارنكا, قبرص

دائرة عرض: 34-53N, خط طول: 033-38E, ارتفاع: 2 متر

مراقبة الطقس الحالي

تاريخ ووقت الإصدار 43 دقيقة قبل الساعة 21:30UTC
ريح 7 عقدة من الشمال الغربي
درجة الحرارة 23°درجة مئوية
الرطوبة 73%
ضغط 1013 hPa
الرؤية: 7000 متر
غيوم قليلة على ارتفاع 4000 قدم

METAR: LCLK 172130Z 31007KT 7000 FEW040 23/18 Q1013 NOSIG

زمن: 01:13 (22:13 UTC)

توقعات

تاريخ ووقت الإصدار 4ساعات و 43 دقيقة قبل الساعة 17:30UTC
التوقعات صالحة من17 الساعة 18 UTC إلى 18 الساعة 18 UTC
ريح 6 عقدة من الشمال/الشمال الغربي
الرؤية 10 كم أو أكثر
غيوم قليلة على ارتفاع 2000 قدم
أصبح
من 18 الساعة 08 UTC إلى 18 الساعة 12 UTC
ريح 10 عقدة من الجنوب/الجنوب الشرقي
نظرية الاحتمالات 40% :
مؤقت
من 18 الساعة 12 UTC إلى 18 الساعة 15 UTC
غيوم قليلة على ارتفاع 3500 قدم, مزنة ركامية.
أصبح
من 18 الساعة 16 UTC إلى 18 الساعة 18 UTC
ريح 6 عقدة من الشمال/الشمال الغربي

TAF: LCLK 171730Z 1718/1818 33006KT 9999 FEW020 BECMG 1808/1812 16010KT PROB40 TEMPO 1812/1815 FEW035CB BECMG 1816/1818 33006KT

أرصاد الطقس والتوقعات من أكثر من 4000 مطار (تقارير الطقس للمطار METAR والتنبؤ بالطقس بالمطارTAF).

المحطات المتاحة هي النقط الصفراء والحمراء على الخريطة.

حرك المؤشر فوق النقطة لمعرفة اسم المحطة.

ثم انقر لمعرفة أرصاد وتوقعات الطقس.

لتغيير الخارطة: اضغط على الأزرار الخضراء مع رمز الصليب الأسود للتكبير. على الزر الأخضر مع شرطة للتصغير، أو على الأسهم الخضراء للخرائط المجاورة.


METAR-TAF: